createdAt,value
2022-08-05T00:02:21.767Z,12.70
2022-08-05T00:04:52.871Z,11.25
2022-08-05T00:07:59.180Z,9.40
2022-08-05T00:10:10.023Z,13.27
2022-08-05T00:12:48.483Z,11.25
2022-08-05T00:15:55.250Z,7.93
2022-08-05T00:18:10.573Z,6.38
2022-08-05T00:20:48.874Z,9.10
2022-08-05T00:23:15.623Z,10.75
2022-08-05T00:25:45.923Z,9.75
2022-08-05T00:28:13.209Z,12.18
2022-08-05T00:30:39.810Z,11.10
2022-08-05T00:34:42.258Z,10.30
2022-08-05T00:36:16.455Z,7.57
2022-08-05T00:38:41.708Z,7.88
2022-08-05T00:41:11.801Z,6.95
2022-08-05T00:43:47.012Z,12.10
2022-08-05T00:46:16.228Z,9.05
2022-08-05T00:48:50.751Z,13.25
2022-08-05T00:51:50.888Z,7.90
2022-08-05T00:54:06.628Z,11.45
2022-08-05T00:56:33.363Z,10.38
2022-08-05T00:59:00.240Z,10.32
2022-08-05T01:01:42.585Z,11.48
2022-08-05T01:04:15.689Z,9.52
2022-08-05T01:06:43.840Z,8.32
2022-08-05T01:09:17.413Z,14.00
2022-08-05T01:11:51.733Z,12.40
2022-08-05T01:14:28.090Z,8.35
2022-08-05T01:17:15.499Z,8.05
2022-08-05T01:20:03.694Z,7.70
2022-08-05T01:22:46.920Z,8.52
2022-08-05T01:25:39.686Z,7.82
2022-08-05T01:28:20.926Z,11.32
2022-08-05T01:30:56.479Z,5.55
2022-08-05T01:33:35.483Z,7.22
2022-08-05T01:36:13.080Z,11.20
2022-08-05T01:38:48.468Z,5.60
2022-08-05T01:41:21.907Z,6.78
2022-08-05T01:43:51.227Z,11.57
2022-08-05T01:46:43.031Z,10.57
2022-08-05T01:49:23.406Z,16.92
2022-08-05T01:51:58.815Z,8.52
2022-08-05T01:54:46.327Z,8.80
2022-08-05T01:58:09.487Z,30.55
2022-08-05T02:00:12.062Z,10.05
2022-08-05T02:02:53.585Z,16.75
2022-08-05T02:05:25.293Z,17.90
2022-08-05T02:08:01.152Z,15.80
2022-08-05T02:10:35.460Z,17.00
2022-08-05T02:13:16.317Z,12.30
2022-08-05T02:15:54.291Z,12.32
2022-08-05T02:18:34.489Z,12.63
2022-08-05T02:21:18.735Z,11.82
2022-08-05T02:23:50.614Z,13.65
2022-08-05T02:28:50.121Z,15.82
2022-08-05T02:31:26.781Z,18.50
2022-08-05T02:34:01.267Z,16.40
2022-08-05T02:36:31.467Z,10.90
2022-08-05T02:39:00.393Z,11.82
2022-08-05T02:41:43.430Z,23.45
2022-08-05T02:44:18.121Z,17.92
2022-08-05T02:46:59.928Z,18.77
2022-08-05T02:49:36.658Z,13.00
2022-08-05T02:52:08.731Z,9.90
2022-08-05T02:54:41.137Z,12.27
2022-08-05T02:58:19.726Z,14.25
2022-08-05T03:00:01.322Z,13.77
2022-08-05T03:02:39.867Z,17.73
2022-08-05T03:05:10.319Z,18.75
2022-08-05T03:08:01.213Z,17.88
2022-08-05T03:10:27.113Z,19.08
2022-08-05T03:12:54.513Z,24.08
2022-08-05T03:15:25.518Z,16.58
2022-08-05T03:17:55.796Z,16.98
2022-08-05T03:20:24.388Z,19.48
2022-08-05T03:22:52.836Z,13.73
2022-08-05T03:25:32.612Z,19.45
2022-08-05T03:28:09.648Z,21.10
2022-08-05T03:30:38.331Z,14.20
2022-08-05T03:33:08.351Z,15.30
2022-08-05T03:35:40.429Z,11.70
2022-08-05T03:38:11.571Z,14.60
2022-08-05T03:40:45.295Z,11.05
2022-08-05T03:43:58.554Z,10.90
2022-08-05T03:46:02.845Z,12.07
2022-08-05T03:48:35.543Z,11.75
2022-08-05T03:52:37.822Z,15.75
2022-08-05T03:55:53.008Z,12.18
2022-08-05T03:57:41.906Z,18.35
2022-08-05T04:00:16.010Z,24.05
2022-08-05T04:02:57.750Z,15.43
2022-08-05T04:05:33.914Z,11.63
2022-08-05T04:08:29.550Z,12.93
2022-08-05T04:10:55.358Z,13.65
2022-08-05T04:13:22.884Z,8.93
2022-08-05T04:16:04.446Z,8.90
2022-08-05T04:18:34.381Z,16.75
2022-08-05T04:21:04.655Z,9.65
2022-08-05T04:24:05.659Z,6.50
2022-08-05T04:26:19.950Z,11.60
2022-08-05T04:28:50.876Z,10.93
2022-08-05T04:31:20.450Z,13.32
2022-08-05T04:34:18.029Z,15.82
2022-08-05T04:36:45.634Z,14.02
2022-08-05T04:39:13.305Z,19.50
2022-08-05T04:41:40.371Z,15.00
2022-08-05T04:44:09.599Z,19.40
2022-08-05T04:46:37.612Z,13.52
2022-08-05T04:49:05.971Z,17.27
2022-08-05T04:51:39.401Z,13.30
2022-08-05T04:54:06.138Z,13.73
2022-08-05T04:56:37.196Z,17.98
2022-08-05T04:59:21.607Z,15.63
2022-08-05T05:02:35.473Z,11.98
2022-08-05T05:04:38.191Z,6.75
2022-08-05T05:07:09.419Z,10.32
2022-08-05T05:09:37.223Z,14.15
2022-08-05T05:12:04.884Z,19.70
2022-08-05T05:14:33.322Z,12.55
2022-08-05T05:17:03.721Z,14.13
2022-08-05T05:19:37.289Z,9.77
2022-08-05T05:22:23.117Z,11.45
2022-08-05T05:24:59.803Z,7.97
2022-08-05T05:27:44.636Z,7.15
2022-08-05T05:30:29.077Z,14.05
2022-08-05T05:33:00.631Z,7.43
2022-08-05T05:35:34.251Z,7.72
2022-08-05T05:38:05.584Z,6.85
2022-08-05T05:40:35.709Z,12.57
2022-08-05T05:43:03.606Z,15.85
2022-08-05T05:45:30.868Z,12.27
2022-08-05T05:48:06.333Z,8.52
2022-08-05T05:50:43.940Z,5.78
2022-08-05T05:53:21.117Z,12.15
2022-08-05T05:55:51.941Z,11.23
2022-08-05T05:58:30.177Z,9.00
2022-08-05T06:01:12.078Z,9.48
2022-08-05T06:04:00.872Z,8.63
2022-08-05T06:06:33.238Z,7.13
2022-08-05T06:09:05.607Z,8.57
2022-08-05T06:11:35.104Z,8.32
2022-08-05T06:14:06.358Z,11.73
2022-08-05T06:16:36.766Z,12.13
2022-08-05T06:19:05.476Z,12.98
2022-08-05T06:21:36.065Z,6.38
2022-08-05T06:24:07.753Z,12.70
2022-08-05T06:26:52.391Z,20.20
2022-08-05T06:29:42.948Z,9.95
2022-08-05T06:32:25.644Z,9.77
2022-08-05T06:34:57.212Z,14.75
2022-08-05T06:37:56.014Z,12.30
2022-08-05T06:40:13.661Z,7.60
2022-08-05T06:42:40.994Z,9.20
2022-08-05T06:45:09.425Z,10.60
2022-08-05T06:48:36.742Z,8.98
2022-08-05T06:50:25.039Z,9.27
2022-08-05T06:52:58.554Z,13.48
2022-08-05T06:55:27.271Z,8.63
2022-08-05T06:58:03.890Z,16.20
2022-08-05T07:00:41.724Z,12.75
2022-08-05T07:03:09.670Z,10.38
2022-08-05T07:05:37.727Z,11.25
2022-08-05T07:08:10.721Z,12.27
2022-08-05T07:10:38.109Z,19.10
2022-08-05T07:13:57.114Z,16.15
2022-08-05T07:18:00.995Z,14.55
2022-08-05T07:19:38.923Z,13.25
2022-08-05T07:22:06.851Z,12.35
2022-08-05T07:24:35.184Z,14.10
2022-08-05T07:27:10.898Z,16.35
2022-08-05T07:30:25.408Z,13.02
2022-08-05T07:32:26.175Z,15.13
2022-08-05T07:34:57.738Z,17.27
2022-08-05T07:37:25.111Z,8.73
2022-08-05T07:40:26.818Z,9.02
2022-08-05T07:42:51.730Z,11.70
2022-08-05T07:45:19.253Z,14.50
2022-08-05T07:48:06.210Z,13.13
2022-08-05T07:50:35.450Z,9.55
2022-08-05T07:53:03.582Z,7.82
2022-08-05T07:55:44.396Z,11.25
2022-08-05T07:58:58.593Z,11.90
2022-08-05T08:01:06.184Z,6.50
2022-08-05T08:03:44.852Z,8.98
2022-08-05T08:06:11.929Z,11.77
2022-08-05T08:08:38.559Z,8.02
2022-08-05T08:11:08.925Z,7.38
2022-08-05T08:13:42.960Z,18.08
2022-08-05T08:16:34.354Z,4.80
2022-08-05T08:19:03.791Z,15.07
2022-08-05T08:21:33.391Z,6.32
2022-08-05T08:24:04.972Z,7.55
2022-08-05T08:26:33.093Z,11.80
2022-08-05T08:29:21.837Z,14.27
2022-08-05T08:31:49.703Z,10.18
2022-08-05T08:34:30.867Z,7.90
2022-08-05T08:37:05.326Z,10.93
2022-08-05T08:39:32.703Z,16.15
2022-08-05T08:42:10.816Z,10.48
2022-08-05T08:45:23.840Z,7.95
2022-08-05T08:48:07.050Z,5.60
2022-08-05T08:51:03.833Z,5.80
2022-08-05T08:53:28.894Z,5.50
2022-08-05T08:56:05.252Z,5.45
2022-08-05T08:58:43.098Z,8.75
2022-08-05T09:01:15.805Z,6.13
2022-08-05T09:03:47.565Z,15.27
2022-08-05T09:08:48.609Z,12.20
2022-08-05T09:11:16.142Z,10.52
2022-08-05T09:14:09.517Z,10.65
2022-08-05T09:16:31.039Z,7.72
2022-08-05T09:18:59.411Z,8.00
2022-08-05T09:22:23.426Z,4.22
2022-08-05T09:24:15.941Z,3.50
2022-08-05T09:26:47.616Z,11.13
2022-08-05T09:29:19.272Z,7.38
2022-08-05T09:32:40.284Z,5.60
2022-08-05T09:34:55.206Z,6.50
2022-08-05T09:38:13.054Z,7.55
2022-08-05T09:40:39.673Z,5.88
2022-08-05T09:43:40.560Z,4.40
2022-08-05T09:46:30.501Z,6.93
2022-08-05T09:49:08.433Z,2.45
2022-08-05T09:51:48.815Z,4.43
2022-08-05T09:54:21.364Z,4.55
2022-08-05T09:56:56.214Z,3.95
2022-08-05T09:59:27.690Z,2.97
2022-08-05T10:01:58.397Z,2.80
2022-08-05T10:04:35.897Z,4.20
2022-08-05T10:07:14.246Z,4.07
2022-08-05T10:10:14.379Z,7.32
2022-08-05T10:12:49.699Z,9.27
2022-08-05T10:15:39.226Z,3.03
2022-08-05T10:18:19.832Z,6.95
2022-08-05T10:21:08.467Z,5.13
2022-08-05T10:23:58.974Z,6.72
2022-08-05T10:26:32.352Z,2.92
2022-08-05T10:28:59.950Z,4.40
2022-08-05T10:32:53.354Z,5.28
2022-08-05T10:34:17.161Z,8.23
2022-08-05T10:36:44.326Z,3.17
2022-08-05T10:40:04.305Z,18.63
2022-08-05T10:42:33.592Z,9.50
2022-08-05T10:45:02.346Z,4.53
2022-08-05T10:48:29.994Z,3.53
2022-08-05T10:51:06.181Z,3.75
2022-08-05T10:53:51.820Z,4.18
2022-08-05T10:56:26.041Z,3.35
2022-08-05T10:58:55.934Z,3.15
2022-08-05T11:01:55.082Z,6.25
2022-08-05T11:04:22.604Z,5.70
2022-08-05T11:07:04.555Z,3.92
2022-08-05T11:10:04.006Z,5.03
2022-08-05T11:12:45.361Z,7.93
2022-08-05T11:15:21.296Z,6.28
2022-08-05T11:18:00.087Z,4.20
2022-08-05T11:20:47.608Z,7.25
2022-08-05T11:24:03.846Z,3.20
2022-08-05T11:26:32.341Z,4.82
2022-08-05T11:29:12.146Z,3.00
2022-08-05T11:31:57.406Z,4.63
2022-08-05T11:34:50.882Z,6.30
2022-08-05T11:38:29.525Z,7.20
2022-08-05T11:41:35.698Z,7.53
2022-08-05T11:44:40.139Z,4.22
2022-08-05T11:47:11.763Z,4.97
2022-08-05T11:49:43.351Z,6.47
2022-08-05T11:52:29.198Z,5.05
2022-08-05T11:54:58.511Z,2.88
2022-08-05T11:58:08.624Z,5.70
2022-08-05T12:00:31.765Z,10.40
2022-08-05T12:03:15.848Z,5.97
2022-08-05T12:05:51.072Z,3.28
2022-08-05T12:08:18.633Z,8.35
2022-08-05T12:10:48.725Z,4.85
2022-08-05T12:13:27.839Z,3.80
2022-08-05T12:16:14.129Z,12.00
2022-08-05T12:18:42.710Z,6.18
2022-08-05T12:21:30.279Z,4.15
2022-08-05T12:24:05.248Z,5.82
2022-08-05T12:26:44.023Z,5.45
2022-08-05T12:29:16.388Z,3.72
2022-08-05T12:31:55.275Z,3.33
2022-08-05T12:34:26.857Z,7.65
2022-08-05T12:39:23.715Z,4.88
2022-08-05T12:42:00.218Z,8.15
2022-08-05T12:44:33.229Z,4.28
2022-08-05T12:47:01.771Z,5.90
2022-08-05T12:50:03.253Z,5.00
2022-08-05T12:52:32.367Z,7.57
2022-08-05T12:55:22.127Z,8.50
2022-08-05T12:58:38.235Z,4.82
2022-08-05T13:02:02.521Z,6.37
2022-08-05T13:03:35.206Z,3.65
2022-08-05T13:06:11.606Z,4.85
2022-08-05T13:08:38.918Z,3.10
2022-08-05T13:11:07.978Z,4.70
2022-08-05T13:14:04.569Z,6.82
2022-08-05T13:16:28.005Z,4.47
2022-08-05T13:18:58.738Z,7.47
2022-08-05T13:21:28.520Z,3.78
2022-08-05T13:24:08.796Z,5.90
2022-08-05T13:26:36.365Z,3.97
2022-08-05T13:29:05.194Z,4.70
2022-08-05T13:31:34.063Z,3.60
2022-08-05T13:34:24.492Z,6.80
2022-08-05T13:36:53.838Z,3.85
2022-08-05T13:40:13.176Z,6.95
2022-08-05T13:42:14.680Z,5.60
2022-08-05T13:44:46.169Z,3.30
2022-08-05T13:47:28.175Z,6.43
2022-08-05T13:50:06.863Z,3.88
2022-08-05T13:52:38.292Z,3.03
2022-08-05T13:55:07.302Z,2.53
2022-08-05T13:57:51.050Z,2.88
2022-08-05T14:00:26.882Z,5.38
2022-08-05T14:02:55.855Z,5.18
2022-08-05T14:05:48.269Z,4.78
2022-08-05T14:08:20.255Z,3.30
2022-08-05T14:10:49.047Z,3.20
2022-08-05T14:13:16.378Z,3.72
2022-08-05T14:16:05.294Z,4.95
2022-08-05T14:18:29.821Z,3.20
2022-08-05T14:20:56.475Z,4.78
2022-08-05T14:23:25.762Z,7.97
2022-08-05T14:25:58.490Z,5.68
2022-08-05T14:28:27.860Z,3.95
2022-08-05T14:30:56.650Z,3.72
2022-08-05T14:33:23.693Z,2.92
2022-08-05T14:35:53.956Z,5.03
2022-08-05T14:38:33.299Z,7.57
2022-08-05T14:44:02.318Z,2.97
2022-08-05T14:46:29.162Z,3.83
2022-08-05T14:48:59.595Z,2.88
2022-08-05T14:51:34.006Z,3.00
2022-08-05T14:54:26.435Z,5.10
2022-08-05T14:56:48.294Z,8.13
2022-08-05T14:59:15.934Z,4.95
2022-08-05T15:01:49.008Z,4.50
2022-08-05T15:04:16.940Z,2.55
2022-08-05T15:06:48.978Z,3.90
2022-08-05T15:09:19.443Z,5.53
2022-08-05T15:12:04.794Z,7.43
2022-08-05T15:14:34.963Z,6.72
2022-08-05T15:17:10.014Z,5.40
2022-08-05T15:19:56.299Z,4.47
2022-08-05T15:22:27.032Z,3.58
2022-08-05T15:24:55.077Z,3.95
2022-08-05T15:27:21.700Z,5.40
2022-08-05T15:29:53.160Z,5.30
2022-08-05T15:32:27.138Z,3.42
2022-08-05T15:34:56.712Z,5.72
2022-08-05T15:38:32.842Z,4.18
2022-08-05T15:41:04.794Z,2.95
2022-08-05T15:43:10.948Z,3.95
2022-08-05T15:45:46.104Z,6.07
2022-08-05T15:48:15.181Z,3.85
2022-08-05T15:50:43.909Z,3.00
2022-08-05T15:53:12.641Z,3.63
2022-08-05T15:56:04.323Z,3.65
2022-08-05T15:58:30.042Z,4.55
2022-08-05T16:01:16.682Z,3.63
2022-08-05T16:03:50.257Z,3.03
2022-08-05T16:06:22.747Z,4.43
2022-08-05T16:08:53.664Z,7.53
2022-08-05T16:11:42.952Z,4.97
2022-08-05T16:14:09.517Z,6.47
2022-08-05T16:16:36.820Z,7.70
2022-08-05T16:19:03.932Z,9.77
2022-08-05T16:22:00.619Z,3.88
2022-08-05T16:24:41.453Z,6.07
2022-08-05T16:27:04.969Z,4.65
2022-08-05T16:29:37.412Z,7.43
2022-08-05T16:32:09.525Z,5.28
2022-08-05T16:34:36.481Z,3.00
2022-08-05T16:37:06.063Z,3.50
2022-08-05T16:40:04.665Z,4.07
2022-08-05T16:42:32.874Z,4.78
2022-08-05T16:45:00.457Z,5.10
2022-08-05T16:47:36.313Z,3.67
2022-08-05T16:50:14.756Z,3.30
2022-08-05T16:52:46.171Z,6.10
2022-08-05T16:55:12.983Z,5.22
2022-08-05T16:57:52.555Z,6.07
2022-08-05T17:00:34.983Z,23.05
2022-08-05T17:03:15.286Z,6.63
2022-08-05T17:05:53.584Z,5.90
2022-08-05T17:08:33.591Z,4.63
2022-08-05T17:11:12.787Z,5.57
2022-08-05T17:13:44.532Z,4.05
2022-08-05T17:16:29.825Z,6.13
2022-08-05T17:19:00.917Z,7.90
2022-08-05T17:21:35.589Z,8.75
2022-08-05T17:24:19.569Z,6.93
2022-08-05T17:26:52.737Z,5.43
2022-08-05T17:29:22.430Z,6.40
2022-08-05T17:31:59.738Z,8.05
2022-08-05T17:34:29.560Z,6.22
2022-08-05T17:36:57.363Z,4.07
2022-08-05T17:39:34.089Z,5.70
2022-08-05T17:42:19.801Z,4.50
2022-08-05T17:44:51.991Z,5.40
2022-08-05T17:47:22.238Z,3.17
2022-08-05T17:49:51.949Z,4.00
2022-08-05T17:52:30.601Z,5.97
2022-08-05T17:55:00.178Z,5.40
2022-08-05T17:57:28.402Z,5.72
2022-08-05T18:00:05.015Z,6.72
2022-08-05T18:02:34.123Z,5.43
2022-08-05T18:05:07.610Z,13.90
2022-08-05T18:07:41.370Z,7.35
2022-08-05T18:10:11.254Z,9.00
2022-08-05T18:12:39.565Z,7.07
2022-08-05T18:15:08.685Z,10.77
2022-08-05T18:17:58.927Z,5.75
2022-08-05T18:20:29.279Z,12.70
2022-08-05T18:23:00.683Z,11.02
2022-08-05T18:25:36.929Z,6.45
2022-08-05T18:28:06.890Z,11.90
2022-08-05T18:30:34.978Z,9.15
2022-08-05T18:33:02.344Z,4.70
2022-08-05T18:36:01.154Z,12.18
2022-08-05T18:38:19.275Z,6.93
2022-08-05T18:41:57.092Z,9.93
2022-08-05T18:43:43.214Z,14.43
2022-08-05T18:46:20.132Z,9.68
2022-08-05T18:48:53.531Z,10.00
2022-08-05T18:52:03.976Z,9.60
2022-08-05T18:54:31.340Z,9.25
2022-08-05T18:57:02.398Z,14.75
2022-08-05T18:59:44.470Z,11.23
2022-08-05T19:02:26.938Z,9.43
2022-08-05T19:05:02.114Z,12.77
2022-08-05T19:07:46.110Z,17.02
2022-08-05T19:10:14.553Z,12.15
2022-08-05T19:12:41.580Z,15.52
2022-08-05T19:15:54.673Z,12.02
2022-08-05T19:18:08.785Z,12.23
2022-08-05T19:20:41.288Z,13.25
2022-08-05T19:24:06.101Z,14.05
2022-08-05T19:26:01.595Z,12.57
2022-08-05T19:30:55.989Z,10.00
2022-08-05T19:33:35.019Z,19.63
2022-08-05T19:36:06.377Z,13.32
2022-08-05T19:38:36.763Z,17.27
2022-08-05T19:41:08.930Z,16.83
2022-08-05T19:44:06.759Z,13.50
2022-08-05T19:46:30.340Z,9.63
2022-08-05T19:49:03.136Z,13.80
2022-08-05T19:52:04.551Z,10.20
2022-08-05T19:54:28.393Z,14.00
2022-08-05T19:56:59.801Z,15.18
2022-08-05T19:59:55.177Z,9.73
2022-08-05T20:02:18.301Z,14.88
2022-08-05T20:04:48.272Z,11.15
2022-08-05T20:07:15.470Z,13.43
2022-08-05T20:09:55.020Z,11.30
2022-08-05T20:12:25.171Z,12.88
2022-08-05T20:14:53.387Z,15.07
2022-08-05T20:17:23.407Z,11.55
2022-08-05T20:19:56.559Z,19.20
2022-08-05T20:22:25.010Z,14.55
2022-08-05T20:24:54.780Z,20.13
2022-08-05T20:27:26.993Z,11.70
2022-08-05T20:29:57.849Z,18.23
2022-08-05T20:32:27.518Z,13.88
2022-08-05T20:34:54.898Z,17.17
2022-08-05T20:38:06.705Z,16.63
2022-08-05T20:40:10.287Z,13.25
2022-08-05T20:42:37.611Z,12.32
2022-08-05T20:45:06.982Z,23.52
2022-08-05T20:47:40.067Z,14.93
2022-08-05T20:50:08.077Z,16.77
2022-08-05T20:52:39.237Z,19.80
2022-08-05T20:55:56.899Z,15.05
2022-08-05T20:57:56.418Z,12.57
2022-08-05T21:00:40.743Z,9.55
2022-08-05T21:03:11.020Z,19.83
2022-08-05T21:05:54.127Z,17.92
2022-08-05T21:08:41.405Z,13.57
2022-08-05T21:11:51.568Z,11.65
2022-08-05T21:14:01.013Z,13.20
2022-08-05T21:16:29.702Z,16.10
2022-08-05T21:18:59.972Z,10.05
2022-08-05T21:21:39.501Z,11.13
2022-08-05T21:24:12.879Z,12.95
2022-08-05T21:26:41.492Z,8.45
2022-08-05T21:29:12.616Z,9.25
2022-08-05T21:31:43.695Z,8.93
2022-08-05T21:34:11.545Z,5.78
2022-08-05T21:36:42.439Z,8.40
2022-08-05T21:39:14.349Z,6.03
2022-08-05T21:41:52.426Z,6.82
2022-08-05T21:44:27.025Z,5.72
2022-08-05T21:46:55.643Z,5.35
2022-08-05T21:50:00.199Z,6.30
2022-08-05T21:52:22.826Z,7.30
2022-08-05T21:54:56.367Z,9.48
2022-08-05T21:57:32.433Z,8.38
2022-08-05T22:00:05.773Z,7.78
2022-08-05T22:02:34.777Z,11.35
2022-08-05T22:05:02.026Z,8.88
2022-08-05T22:07:39.334Z,6.82
2022-08-05T22:10:25.488Z,6.45
2022-08-05T22:12:53.905Z,7.15
2022-08-05T22:16:01.498Z,8.88
2022-08-05T22:18:08.706Z,7.63
2022-08-05T22:20:39.003Z,8.82
2022-08-05T22:23:24.793Z,5.95
2022-08-05T22:26:30.303Z,7.47
2022-08-05T22:28:57.368Z,7.80
2022-08-05T22:31:29.989Z,6.82
2022-08-05T22:34:01.010Z,11.00
2022-08-05T22:36:28.368Z,8.35
2022-08-05T22:38:56.853Z,7.28
2022-08-05T22:41:26.307Z,6.85
2022-08-05T22:44:12.112Z,5.57
2022-08-05T22:46:40.799Z,7.88
2022-08-05T22:49:23.110Z,6.97
2022-08-05T22:52:06.643Z,6.05
2022-08-05T22:54:36.278Z,6.38
2022-08-05T22:57:05.073Z,12.77
2022-08-05T22:59:45.279Z,5.78
2022-08-05T23:02:17.800Z,12.23
2022-08-05T23:04:51.604Z,6.68
2022-08-05T23:07:21.915Z,5.45
2022-08-05T23:09:56.979Z,6.25
2022-08-05T23:12:32.851Z,10.55
2022-08-05T23:17:34.390Z,7.20
2022-08-05T23:20:16.990Z,8.77
2022-08-05T23:22:48.712Z,6.15
2022-08-05T23:25:51.178Z,6.50
2022-08-05T23:28:06.861Z,11.45
2022-08-05T23:30:40.326Z,9.07
2022-08-05T23:33:21.894Z,14.93
2022-08-05T23:35:50.413Z,9.95
2022-08-05T23:38:18.151Z,9.70
2022-08-05T23:40:49.887Z,14.27
2022-08-05T23:43:25.335Z,11.85
2022-08-05T23:46:21.133Z,8.98
2022-08-05T23:49:00.840Z,7.15
2022-08-05T23:51:53.612Z,8.13
2022-08-05T23:54:26.744Z,12.45
2022-08-05T23:57:03.371Z,8.93
